sensor_id;sensor_type;location;lat;lon;timestamp;temperature;humidity
1411;DHT22;700;51.906;8.404;2023-08-06T00:04:18;18.30;99.90
1411;DHT22;700;51.906;8.404;2023-08-06T00:09:19;18.40;99.90
1411;DHT22;700;51.906;8.404;2023-08-06T00:14:20;18.40;99.90
1411;DHT22;700;51.906;8.404;2023-08-06T00:19:23;18.40;99.90
1411;DHT22;700;51.906;8.404;2023-08-06T00:24:24;18.40;99.90
1411;DHT22;700;51.906;8.404;2023-08-06T00:29:27;18.50;99.90
1411;DHT22;700;51.906;8.404;2023-08-06T00:34:27;18.50;99.90
1411;DHT22;700;51.906;8.404;2023-08-06T00:39:30;18.50;99.90
1411;DHT22;700;51.906;8.404;2023-08-06T00:44:30;18.30;99.90
1411;DHT22;700;51.906;8.404;2023-08-06T00:49:31;18.40;99.90
1411;DHT22;700;51.906;8.404;2023-08-06T00:54:33;18.40;99.90
1411;DHT22;700;51.906;8.404;2023-08-06T00:59:34;18.40;99.90
1411;DHT22;700;51.906;8.404;2023-08-06T01:04:38;18.30;99.90
1411;DHT22;700;51.906;8.404;2023-08-06T01:09:50;18.30;99.90
1411;DHT22;700;51.906;8.404;2023-08-06T01:14:57;18.30;99.90
1411;DHT22;700;51.906;8.404;2023-08-06T01:20:03;18.40;99.90
1411;DHT22;700;51.906;8.404;2023-08-06T01:25:04;18.10;99.90
1411;DHT22;700;51.906;8.404;2023-08-06T01:30:17;18.10;99.90
1411;DHT22;700;51.906;8.404;2023-08-06T01:35:21;18.10;99.90
1411;DHT22;700;51.906;8.404;2023-08-06T01:40:28;18.10;99.90
1411;DHT22;700;51.906;8.404;2023-08-06T01:45:29;18.20;99.90
1411;DHT22;700;51.906;8.404;2023-08-06T01:50:32;18.20;99.90
1411;DHT22;700;51.906;8.404;2023-08-06T01:55:35;18.10;99.90
1411;DHT22;700;51.906;8.404;2023-08-06T02:00:36;18.10;99.90
1411;DHT22;700;51.906;8.404;2023-08-06T02:05:36;18.20;99.90
1411;DHT22;700;51.906;8.404;2023-08-06T02:10:37;18.00;99.90
1411;DHT22;700;51.906;8.404;2023-08-06T02:15:49;18.00;99.90
1411;DHT22;700;51.906;8.404;2023-08-06T02:20:59;18.00;99.90
1411;DHT22;700;51.906;8.404;2023-08-06T02:26:04;18.00;99.90
1411;DHT22;700;51.906;8.404;2023-08-06T02:31:05;18.10;99.90
1411;DHT22;700;51.906;8.404;2023-08-06T02:36:09;18.00;99.90
1411;DHT22;700;51.906;8.404;2023-08-06T02:41:12;18.10;99.90
1411;DHT22;700;51.906;8.404;2023-08-06T02:46:12;18.00;99.90
1411;DHT22;700;51.906;8.404;2023-08-06T02:51:13;18.00;99.90
1411;DHT22;700;51.906;8.404;2023-08-06T02:56:20;18.00;99.90
1411;DHT22;700;51.906;8.404;2023-08-06T03:01:21;17.90;99.90
1411;DHT22;700;51.906;8.404;2023-08-06T03:06:26;17.80;99.90
1411;DHT22;700;51.906;8.404;2023-08-06T03:11:26;17.70;99.90
1411;DHT22;700;51.906;8.404;2023-08-06T03:16:27;17.70;99.90
1411;DHT22;700;51.906;8.404;2023-08-06T03:21:28;17.60;99.90
1411;DHT22;700;51.906;8.404;2023-08-06T03:26:31;17.60;99.90
1411;DHT22;700;51.906;8.404;2023-08-06T03:31:31;17.50;99.90
1411;DHT22;700;51.906;8.404;2023-08-06T03:36:34;17.40;99.90
1411;DHT22;700;51.906;8.404;2023-08-06T03:41:35;17.40;99.90
1411;DHT22;700;51.906;8.404;2023-08-06T03:46:36;17.30;99.90
1411;DHT22;700;51.906;8.404;2023-08-06T03:51:36;17.30;99.90
1411;DHT22;700;51.906;8.404;2023-08-06T03:56:39;17.20;99.90
1411;DHT22;700;51.906;8.404;2023-08-06T04:01:40;17.20;99.90
1411;DHT22;700;51.906;8.404;2023-08-06T04:06:43;17.30;99.90
1411;DHT22;700;51.906;8.404;2023-08-06T04:11:43;17.20;99.90
1411;DHT22;700;51.906;8.404;2023-08-06T04:16:44;17.40;99.90
1411;DHT22;700;51.906;8.404;2023-08-06T04:21:44;17.40;99.90
1411;DHT22;700;51.906;8.404;2023-08-06T04:26:45;17.50;99.90
1411;DHT22;700;51.906;8.404;2023-08-06T04:31:48;17.50;99.90
1411;DHT22;700;51.906;8.404;2023-08-06T04:36:49;17.40;99.90
1411;DHT22;700;51.906;8.404;2023-08-06T04:41:49;17.50;99.90
1411;DHT22;700;51.906;8.404;2023-08-06T04:46:50;17.40;99.90
1411;DHT22;700;51.906;8.404;2023-08-06T04:51:51;17.40;99.90
1411;DHT22;700;51.906;8.404;2023-08-06T04:56:56;17.50;99.90
1411;DHT22;700;51.906;8.404;2023-08-06T05:01:59;17.40;99.90
1411;DHT22;700;51.906;8.404;2023-08-06T05:07:00;17.50;99.90
1411;DHT22;700;51.906;8.404;2023-08-06T05:12:05;17.50;99.90
1411;DHT22;700;51.906;8.404;2023-08-06T05:17:06;17.50;99.90
1411;DHT22;700;51.906;8.404;2023-08-06T05:22:07;17.50;99.90
1411;DHT22;700;51.906;8.404;2023-08-06T05:27:07;17.60;99.90
1411;DHT22;700;51.906;8.404;2023-08-06T05:32:10;17.50;99.90
1411;DHT22;700;51.906;8.404;2023-08-06T05:37:11;17.60;99.90
1411;DHT22;700;51.906;8.404;2023-08-06T05:42:11;17.60;99.90
1411;DHT22;700;51.906;8.404;2023-08-06T05:47:12;17.80;99.90
1411;DHT22;700;51.906;8.404;2023-08-06T05:52:13;17.90;99.90
1411;DHT22;700;51.906;8.404;2023-08-06T05:57:16;18.00;99.90
1411;DHT22;700;51.906;8.404;2023-08-06T06:02:19;18.10;99.90
1411;DHT22;700;51.906;8.404;2023-08-06T06:07:20;17.80;99.90
1411;DHT22;700;51.906;8.404;2023-08-06T06:12:23;18.10;99.90
1411;DHT22;700;51.906;8.404;2023-08-06T06:17:29;18.10;99.90
1411;DHT22;700;51.906;8.404;2023-08-06T06:22:30;18.10;99.90
1411;DHT22;700;51.906;8.404;2023-08-06T06:27:30;18.30;99.90
1411;DHT22;700;51.906;8.404;2023-08-06T06:32:36;18.60;99.90
1411;DHT22;700;51.906;8.404;2023-08-06T06:37:36;18.70;99.90
1411;DHT22;700;51.906;8.404;2023-08-06T06:42:39;19.00;99.90
1411;DHT22;700;51.906;8.404;2023-08-06T06:47:42;19.20;99.90
1411;DHT22;700;51.906;8.404;2023-08-06T06:52:48;19.50;99.90
1411;DHT22;700;51.906;8.404;2023-08-06T06:57:51;19.60;99.90
1411;DHT22;700;51.906;8.404;2023-08-06T07:02:54;20.00;99.90
1411;DHT22;700;51.906;8.404;2023-08-06T07:07:54;20.30;99.90
1411;DHT22;700;51.906;8.404;2023-08-06T07:12:57;20.40;99.90
1411;DHT22;700;51.906;8.404;2023-08-06T07:18:00;20.50;99.90
1411;DHT22;700;51.906;8.404;2023-08-06T07:23:03;20.60;99.90
1411;DHT22;700;51.906;8.404;2023-08-06T07:28:04;20.40;99.90
1411;DHT22;700;51.906;8.404;2023-08-06T07:33:05;20.20;99.90
1411;DHT22;700;51.906;8.404;2023-08-06T07:38:06;20.10;99.90
1411;DHT22;700;51.906;8.404;2023-08-06T07:43:09;20.20;99.90
1411;DHT22;700;51.906;8.404;2023-08-06T07:48:12;20.30;99.90
1411;DHT22;700;51.906;8.404;2023-08-06T07:53:12;20.30;99.90
1411;DHT22;700;51.906;8.404;2023-08-06T07:58:13;20.70;99.90
1411;DHT22;700;51.906;8.404;2023-08-06T08:03:15;21.20;99.90
1411;DHT22;700;51.906;8.404;2023-08-06T08:08:18;21.60;99.90
1411;DHT22;700;51.906;8.404;2023-08-06T08:13:23;22.00;99.90
1411;DHT22;700;51.906;8.404;2023-08-06T08:18:25;22.50;99.90
1411;DHT22;700;51.906;8.404;2023-08-06T08:23:25;23.00;99.90
1411;DHT22;700;51.906;8.404;2023-08-06T08:28:26;23.20;99.90
1411;DHT22;700;51.906;8.404;2023-08-06T08:33:29;23.20;99.90
1411;DHT22;700;51.906;8.404;2023-08-06T08:38:29;23.30;99.90
1411;DHT22;700;51.906;8.404;2023-08-06T08:43:33;23.10;99.90
1411;DHT22;700;51.906;8.404;2023-08-06T08:48:36;23.30;99.90
1411;DHT22;700;51.906;8.404;2023-08-06T08:53:37;23.60;99.90
1411;DHT22;700;51.906;8.404;2023-08-06T08:58:40;23.90;99.90
1411;DHT22;700;51.906;8.404;2023-08-06T09:03:43;24.20;99.90
1411;DHT22;700;51.906;8.404;2023-08-06T09:08:54;24.90;99.90
1411;DHT22;700;51.906;8.404;2023-08-06T09:13:57;25.60;99.90
1411;DHT22;700;51.906;8.404;2023-08-06T09:19:09;26.60;99.90
1411;DHT22;700;51.906;8.404;2023-08-06T09:24:15;27.00;99.90
1411;DHT22;700;51.906;8.404;2023-08-06T09:29:18;27.70;99.90
1411;DHT22;700;51.906;8.404;2023-08-06T09:34:23;28.30;99.90
1411;DHT22;700;51.906;8.404;2023-08-06T09:39:28;28.00;99.90
1411;DHT22;700;51.906;8.404;2023-08-06T09:44:33;28.60;99.90
1411;DHT22;700;51.906;8.404;2023-08-06T09:54:37;39.60;71.50
1411;DHT22;700;51.906;8.404;2023-08-06T09:59:42;44.10;50.50
1411;DHT22;700;51.906;8.404;2023-08-06T10:04:47;45.20;42.30
1411;DHT22;700;51.906;8.404;2023-08-06T10:09:53;42.10;42.60
1411;DHT22;700;51.906;8.404;2023-08-06T10:14:55;38.80;45.10
1411;DHT22;700;51.906;8.404;2023-08-06T10:20:00;35.70;50.80
1411;DHT22;700;51.906;8.404;2023-08-06T10:25:02;33.40;55.70
1411;DHT22;700;51.906;8.404;2023-08-06T10:40:33;28.50;80.20
1411;DHT22;700;51.906;8.404;2023-08-06T10:45:35;27.50;90.20
1411;DHT22;700;51.906;8.404;2023-08-06T10:50:37;26.90;93.20
1411;DHT22;700;51.906;8.404;2023-08-06T10:55:39;26.30;97.30
1411;DHT22;700;51.906;8.404;2023-08-06T11:00:40;25.70;98.90
1411;DHT22;700;51.906;8.404;2023-08-06T11:05:49;25.30;99.90
1411;DHT22;700;51.906;8.404;2023-08-06T11:10:51;25.20;99.90
1411;DHT22;700;51.906;8.404;2023-08-06T11:15:52;25.10;99.90
1411;DHT22;700;51.906;8.404;2023-08-06T11:20:54;25.00;99.90
1411;DHT22;700;51.906;8.404;2023-08-06T11:25:59;24.80;99.90
1411;DHT22;700;51.906;8.404;2023-08-06T11:31:00;24.90;99.90
1411;DHT22;700;51.906;8.404;2023-08-06T11:36:03;25.10;99.90
1411;DHT22;700;51.906;8.404;2023-08-06T11:41:06;25.00;99.90
1411;DHT22;700;51.906;8.404;2023-08-06T11:46:11;24.90;99.90
1411;DHT22;700;51.906;8.404;2023-08-06T11:51:15;25.00;99.90
1411;DHT22;700;51.906;8.404;2023-08-06T11:56:16;25.10;99.90
1411;DHT22;700;51.906;8.404;2023-08-06T12:01:18;25.10;99.90
1411;DHT22;700;51.906;8.404;2023-08-06T12:06:19;25.00;99.90
1411;DHT22;700;51.906;8.404;2023-08-06T12:11:23;25.00;99.90
1411;DHT22;700;51.906;8.404;2023-08-06T12:16:29;25.00;99.90
1411;DHT22;700;51.906;8.404;2023-08-06T12:21:30;24.90;99.90
1411;DHT22;700;51.906;8.404;2023-08-06T12:26:31;25.10;99.90
1411;DHT22;700;51.906;8.404;2023-08-06T12:31:32;25.20;99.90
1411;DHT22;700;51.906;8.404;2023-08-06T12:36:33;25.40;99.90
1411;DHT22;700;51.906;8.404;2023-08-06T12:41:33;25.50;99.90
1411;DHT22;700;51.906;8.404;2023-08-06T12:46:34;25.40;99.90
1411;DHT22;700;51.906;8.404;2023-08-06T12:51:38;25.50;99.90
1411;DHT22;700;51.906;8.404;2023-08-06T12:56:39;25.50;99.90
1411;DHT22;700;51.906;8.404;2023-08-06T13:01:42;25.00;99.90
1411;DHT22;700;51.906;8.404;2023-08-06T13:06:43;23.30;99.90
1411;DHT22;700;51.906;8.404;2023-08-06T13:11:43;23.60;99.90
1411;DHT22;700;51.906;8.404;2023-08-06T13:16:47;23.80;99.90
1411;DHT22;700;51.906;8.404;2023-08-06T13:26:53;23.30;99.90
1411;DHT22;700;51.906;8.404;2023-08-06T13:31:56;23.20;99.90
1411;DHT22;700;51.906;8.404;2023-08-06T13:36:58;23.30;99.90
1411;DHT22;700;51.906;8.404;2023-08-06T13:42:02;23.30;99.90
1411;DHT22;700;51.906;8.404;2023-08-06T13:47:05;23.40;99.90
1411;DHT22;700;51.906;8.404;2023-08-06T13:52:06;23.40;99.90
1411;DHT22;700;51.906;8.404;2023-08-06T13:57:07;23.20;99.90
1411;DHT22;700;51.906;8.404;2023-08-06T14:02:12;23.20;99.90
1411;DHT22;700;51.906;8.404;2023-08-06T14:07:15;23.10;99.90
1411;DHT22;700;51.906;8.404;2023-08-06T14:12:15;23.00;99.90
1411;DHT22;700;51.906;8.404;2023-08-06T14:17:18;22.80;99.90
1411;DHT22;700;51.906;8.404;2023-08-06T14:22:19;22.50;99.90
1411;DHT22;700;51.906;8.404;2023-08-06T14:27:19;22.50;99.90
1411;DHT22;700;51.906;8.404;2023-08-06T14:32:23;22.10;99.90
1411;DHT22;700;51.906;8.404;2023-08-06T14:37:26;21.90;99.90
1411;DHT22;700;51.906;8.404;2023-08-06T14:42:29;21.60;99.90
1411;DHT22;700;51.906;8.404;2023-08-06T14:47:29;21.50;99.90
1411;DHT22;700;51.906;8.404;2023-08-06T14:52:30;21.80;99.90
1411;DHT22;700;51.906;8.404;2023-08-06T14:57:34;22.10;99.90
1411;DHT22;700;51.906;8.404;2023-08-06T15:02:36;22.20;99.90
1411;DHT22;700;51.906;8.404;2023-08-06T15:07:37;22.20;99.90
1411;DHT22;700;51.906;8.404;2023-08-06T15:12:38;22.00;99.90
1411;DHT22;700;51.906;8.404;2023-08-06T15:17:42;21.40;99.90
1411;DHT22;700;51.906;8.404;2023-08-06T15:22:42;21.20;99.90
1411;DHT22;700;51.906;8.404;2023-08-06T15:27:43;21.20;99.90
1411;DHT22;700;51.906;8.404;2023-08-06T15:32:44;21.40;99.90
1411;DHT22;700;51.906;8.404;2023-08-06T15:37:45;20.80;99.90
1411;DHT22;700;51.906;8.404;2023-08-06T15:42:45;20.60;99.90
1411;DHT22;700;51.906;8.404;2023-08-06T15:47:49;20.70;99.90
1411;DHT22;700;51.906;8.404;2023-08-06T15:52:54;20.60;99.90
1411;DHT22;700;51.906;8.404;2023-08-06T15:57:57;20.30;99.90
1411;DHT22;700;51.906;8.404;2023-08-06T16:03:01;20.40;99.90
1411;DHT22;700;51.906;8.404;2023-08-06T16:08:02;20.40;99.90
1411;DHT22;700;51.906;8.404;2023-08-06T16:13:07;20.30;99.90
1411;DHT22;700;51.906;8.404;2023-08-06T16:18:08;20.20;99.90
1411;DHT22;700;51.906;8.404;2023-08-06T16:23:11;20.10;99.90
1411;DHT22;700;51.906;8.404;2023-08-06T16:28:16;20.00;99.90
1411;DHT22;700;51.906;8.404;2023-08-06T16:33:17;19.90;99.90
1411;DHT22;700;51.906;8.404;2023-08-06T16:38:18;19.60;99.90
1411;DHT22;700;51.906;8.404;2023-08-06T16:43:21;19.60;99.90
1411;DHT22;700;51.906;8.404;2023-08-06T16:48:25;19.50;99.90
1411;DHT22;700;51.906;8.404;2023-08-06T16:53:30;19.10;99.90
1411;DHT22;700;51.906;8.404;2023-08-06T16:58:33;18.90;99.90
1411;DHT22;700;51.906;8.404;2023-08-06T17:03:34;18.80;99.90
1411;DHT22;700;51.906;8.404;2023-08-06T17:08:35;18.60;99.90
1411;DHT22;700;51.906;8.404;2023-08-06T17:13:35;18.70;99.90
1411;DHT22;700;51.906;8.404;2023-08-06T17:18:36;18.50;99.90
1411;DHT22;700;51.906;8.404;2023-08-06T17:23:37;18.70;99.90
1411;DHT22;700;51.906;8.404;2023-08-06T17:28:38;18.80;99.90
1411;DHT22;700;51.906;8.404;2023-08-06T17:33:38;18.80;99.90
1411;DHT22;700;51.906;8.404;2023-08-06T17:38:39;19.00;99.90
1411;DHT22;700;51.906;8.404;2023-08-06T17:43:40;19.10;99.90
1411;DHT22;700;51.906;8.404;2023-08-06T17:48:40;19.10;99.90
1411;DHT22;700;51.906;8.404;2023-08-06T17:53:41;19.10;99.90
1411;DHT22;700;51.906;8.404;2023-08-06T17:58:42;19.20;99.90
1411;DHT22;700;51.906;8.404;2023-08-06T18:03:43;19.20;99.90
1411;DHT22;700;51.906;8.404;2023-08-06T18:08:46;19.20;99.90
1411;DHT22;700;51.906;8.404;2023-08-06T18:13:51;19.20;99.90
1411;DHT22;700;51.906;8.404;2023-08-06T18:18:55;19.10;99.90
1411;DHT22;700;51.906;8.404;2023-08-06T18:23:58;19.20;99.90
1411;DHT22;700;51.906;8.404;2023-08-06T18:28:59;19.20;99.90
1411;DHT22;700;51.906;8.404;2023-08-06T18:34:00;19.20;99.90
1411;DHT22;700;51.906;8.404;2023-08-06T18:39:05;19.30;99.90
1411;DHT22;700;51.906;8.404;2023-08-06T18:44:06;19.20;99.90
1411;DHT22;700;51.906;8.404;2023-08-06T18:49:11;19.10;99.90
1411;DHT22;700;51.906;8.404;2023-08-06T18:54:17;18.90;99.90
1411;DHT22;700;51.906;8.404;2023-08-06T18:59:18;18.80;99.90
1411;DHT22;700;51.906;8.404;2023-08-06T19:04:22;18.70;99.90
1411;DHT22;700;51.906;8.404;2023-08-06T19:09:24;18.60;99.90
1411;DHT22;700;51.906;8.404;2023-08-06T19:14:25;18.60;99.90
1411;DHT22;700;51.906;8.404;2023-08-06T19:19:29;18.60;99.90
1411;DHT22;700;51.906;8.404;2023-08-06T19:24:30;18.60;99.90
1411;DHT22;700;51.906;8.404;2023-08-06T19:29:30;18.50;99.90
1411;DHT22;700;51.906;8.404;2023-08-06T19:34:36;18.50;99.90
1411;DHT22;700;51.906;8.404;2023-08-06T19:39:39;18.50;99.90
1411;DHT22;700;51.906;8.404;2023-08-06T19:44:42;18.40;99.90
1411;DHT22;700;51.906;8.404;2023-08-06T19:49:45;18.40;99.90
1411;DHT22;700;51.906;8.404;2023-08-06T19:54:48;18.40;99.90
1411;DHT22;700;51.906;8.404;2023-08-06T19:59:48;18.50;99.90
1411;DHT22;700;51.906;8.404;2023-08-06T20:04:51;18.40;99.90
1411;DHT22;700;51.906;8.404;2023-08-06T20:09:52;18.30;99.90
1411;DHT22;700;51.906;8.404;2023-08-06T20:14:55;18.40;99.90
1411;DHT22;700;51.906;8.404;2023-08-06T20:20:00;18.30;99.90
1411;DHT22;700;51.906;8.404;2023-08-06T20:25:01;18.30;99.90
1411;DHT22;700;51.906;8.404;2023-08-06T20:30:01;18.30;99.90
1411;DHT22;700;51.906;8.404;2023-08-06T20:35:02;18.40;99.90
1411;DHT22;700;51.906;8.404;2023-08-06T20:40:06;18.20;99.90
1411;DHT22;700;51.906;8.404;2023-08-06T20:45:07;18.30;99.90
1411;DHT22;700;51.906;8.404;2023-08-06T20:50:10;18.20;99.90
1411;DHT22;700;51.906;8.404;2023-08-06T20:55:13;18.30;99.90
1411;DHT22;700;51.906;8.404;2023-08-06T21:00:14;18.30;99.90
1411;DHT22;700;51.906;8.404;2023-08-06T21:05:19;18.10;99.90
1411;DHT22;700;51.906;8.404;2023-08-06T21:10:22;18.00;99.90
1411;DHT22;700;51.906;8.404;2023-08-06T21:15:23;18.00;99.90
1411;DHT22;700;51.906;8.404;2023-08-06T21:20:23;18.00;99.90
1411;DHT22;700;51.906;8.404;2023-08-06T21:25:26;17.90;99.90
1411;DHT22;700;51.906;8.404;2023-08-06T21:30:30;18.00;99.90
1411;DHT22;700;51.906;8.404;2023-08-06T21:35:33;18.00;99.90
1411;DHT22;700;51.906;8.404;2023-08-06T21:40:36;18.00;99.90
1411;DHT22;700;51.906;8.404;2023-08-06T21:45:39;17.80;99.90
1411;DHT22;700;51.906;8.404;2023-08-06T21:50:40;17.90;99.90
1411;DHT22;700;51.906;8.404;2023-08-06T21:55:43;17.80;99.90
1411;DHT22;700;51.906;8.404;2023-08-06T22:00:44;17.80;99.90
1411;DHT22;700;51.906;8.404;2023-08-06T22:05:46;17.80;99.90
1411;DHT22;700;51.906;8.404;2023-08-06T22:10:48;17.60;99.90
1411;DHT22;700;51.906;8.404;2023-08-06T22:15:51;17.70;99.90
1411;DHT22;700;51.906;8.404;2023-08-06T22:20:56;17.70;99.90
1411;DHT22;700;51.906;8.404;2023-08-06T22:25:57;17.70;99.90
1411;DHT22;700;51.906;8.404;2023-08-06T22:31:00;17.60;99.90
1411;DHT22;700;51.906;8.404;2023-08-06T22:36:03;17.60;99.90
1411;DHT22;700;51.906;8.404;2023-08-06T22:41:06;17.60;99.90
1411;DHT22;700;51.906;8.404;2023-08-06T22:46:10;17.50;99.90
1411;DHT22;700;51.906;8.404;2023-08-06T22:51:11;17.50;99.90
1411;DHT22;700;51.906;8.404;2023-08-06T22:56:11;17.60;99.90
1411;DHT22;700;51.906;8.404;2023-08-06T23:01:12;17.30;99.90
1411;DHT22;700;51.906;8.404;2023-08-06T23:06:15;17.50;99.90
1411;DHT22;700;51.906;8.404;2023-08-06T23:11:18;17.50;99.90
1411;DHT22;700;51.906;8.404;2023-08-06T23:16:18;17.60;99.90
1411;DHT22;700;51.906;8.404;2023-08-06T23:21:24;17.70;99.90
1411;DHT22;700;51.906;8.404;2023-08-06T23:26:24;17.60;99.90
1411;DHT22;700;51.906;8.404;2023-08-06T23:31:25;17.60;99.90
1411;DHT22;700;51.906;8.404;2023-08-06T23:36:26;17.50;99.90
1411;DHT22;700;51.906;8.404;2023-08-06T23:41:26;17.50;99.90
1411;DHT22;700;51.906;8.404;2023-08-06T23:46:28;17.60;99.90
1411;DHT22;700;51.906;8.404;2023-08-06T23:51:28;17.60;99.90
1411;DHT22;700;51.906;8.404;2023-08-06T23:56:31;17.60;99.90
